Chebanse, Illinois
Current Conditions -  °F | °C
As of 10:35 AM on Tuesday 21 Oct 2014 (Local Time) from KIKK Reporting Station
Overcast Overcast  
Wind Chill: 50°   Ceiling: 4200
Heat Index: 50°   Visibility: 10mi
Dew Point: 39°   Wind: 8mph
Humidity: 65%   Direction: 350°N
Pressure: 30.16"   Gusts: NA
Location:  41°N, 87.91°W
Report Text: KIKK 211535Z AUTO 35007KT 10SM OVC042 10/04 A3016 RMK AO2 T01020039
Loading
Personal Weather Stations






























Interactive Weather Map
Tropical Storm Tracking
New forecast layout! Learn more

10-Day Weather Forecast

Advertisements
Track Severe Weather on mobile